sensor_id;sensor_type;location;lat;lon;timestamp;pressure;altitude;pressure_sealevel;temperature;humidity
55347;BME280;41218;55.700;38.270;2023-02-18T00:04:53;100011.63;;;-10.62;67.50
55347;BME280;41218;55.700;38.270;2023-02-18T00:09:54;99995.44;;;-10.67;67.32
55347;BME280;41218;55.700;38.270;2023-02-18T00:14:54;99976.63;;;-10.72;67.72
55347;BME280;41218;55.700;38.270;2023-02-18T00:19:55;99988.94;;;-10.71;67.54
55347;BME280;41218;55.700;38.270;2023-02-18T00:24:56;99979.75;;;-10.75;67.54
55347;BME280;41218;55.700;38.270;2023-02-18T00:29:57;99978.94;;;-10.76;67.75
55347;BME280;41218;55.700;38.270;2023-02-18T00:34:58;99973.00;;;-10.78;67.76
55347;BME280;41218;55.700;38.270;2023-02-18T00:39:58;99965.66;;;-10.82;67.28
55347;BME280;41218;55.700;38.270;2023-02-18T00:44:59;99967.97;;;-10.86;67.44
55347;BME280;41218;55.700;38.270;2023-02-18T00:49:59;99962.47;;;-10.91;67.64
55347;BME280;41218;55.700;38.270;2023-02-18T00:55:00;99958.81;;;-10.97;67.62
55347;BME280;41218;55.700;38.270;2023-02-18T01:00:00;99947.81;;;-11.00;67.36
55347;BME280;41218;55.700;38.270;2023-02-18T01:05:01;99947.41;;;-11.04;67.16
55347;BME280;41218;55.700;38.270;2023-02-18T01:10:03;99934.75;;;-11.09;67.53
55347;BME280;41218;55.700;38.270;2023-02-18T01:15:06;99933.91;;;-11.09;67.40
55347;BME280;41218;55.700;38.270;2023-02-18T01:20:08;99926.00;;;-11.16;67.05
55347;BME280;41218;55.700;38.270;2023-02-18T01:25:09;99918.88;;;-11.22;67.63
55347;BME280;41218;55.700;38.270;2023-02-18T01:30:13;99911.34;;;-11.25;67.23
55347;BME280;41218;55.700;38.270;2023-02-18T01:35:16;99900.28;;;-11.29;67.46
55347;BME280;41218;55.700;38.270;2023-02-18T01:40:21;99901.09;;;-11.28;67.24
55347;BME280;41218;55.700;38.270;2023-02-18T01:50:38;99873.94;;;-11.43;67.03
55347;BME280;41218;55.700;38.270;2023-02-18T01:55:39;99880.94;;;-11.42;66.80
55347;BME280;41218;55.700;38.270;2023-02-18T02:00:40;99878.47;;;-11.44;66.96
55347;BME280;41218;55.700;38.270;2023-02-18T02:05:41;99869.06;;;-11.46;67.37
55347;BME280;41218;55.700;38.270;2023-02-18T02:11:10;99866.84;;;-11.50;67.36
55347;BME280;41218;55.700;38.270;2023-02-18T02:16:24;99859.31;;;-11.53;67.55
55347;BME280;41218;55.700;38.270;2023-02-18T02:47:34;99809.63;;;-11.05;67.39
55347;BME280;41218;55.700;38.270;2023-02-18T02:52:46;99803.97;;;-10.97;67.51
55347;BME280;41218;55.700;38.270;2023-02-18T02:57:53;99794.84;;;-10.89;67.36
55347;BME280;41218;55.700;38.270;2023-02-18T03:03:00;99796.53;;;-10.76;67.63
55347;BME280;41218;55.700;38.270;2023-02-18T03:18:39;99775.41;;;-10.42;68.15
55347;BME280;41218;55.700;38.270;2023-02-18T03:24:02;99767.16;;;-10.29;68.10
55347;BME280;41218;55.700;38.270;2023-02-18T03:29:07;99747.88;;;-10.19;68.05
55347;BME280;41218;55.700;38.270;2023-02-18T03:34:12;99744.13;;;-10.07;68.19
55347;BME280;41218;55.700;38.270;2023-02-18T03:39:17;99735.88;;;-9.93;68.74
55347;BME280;41218;55.700;38.270;2023-02-18T03:44:18;99730.16;;;-9.85;68.41
55347;BME280;41218;55.700;38.270;2023-02-18T03:49:19;99726.97;;;-9.70;68.64
55347;BME280;41218;55.700;38.270;2023-02-18T03:54:19;99733.88;;;-9.57;68.56
55347;BME280;41218;55.700;38.270;2023-02-18T03:59:20;99724.91;;;-9.51;68.46
55347;BME280;41218;55.700;38.270;2023-02-18T04:04:21;99714.16;;;-9.39;68.25
55347;BME280;41218;55.700;38.270;2023-02-18T04:09:21;99698.78;;;-9.32;68.71
55347;BME280;41218;55.700;38.270;2023-02-18T04:14:22;99700.81;;;-9.22;69.00
55347;BME280;41218;55.700;38.270;2023-02-18T04:19:22;99697.25;;;-9.11;68.79
55347;BME280;41218;55.700;38.270;2023-02-18T04:24:23;99688.25;;;-9.05;69.03
55347;BME280;41218;55.700;38.270;2023-02-18T04:29:23;99664.25;;;-9.00;69.07
55347;BME280;41218;55.700;38.270;2023-02-18T04:34:23;99663.09;;;-8.87;69.31
55347;BME280;41218;55.700;38.270;2023-02-18T04:39:24;99661.63;;;-8.78;69.14
55347;BME280;41218;55.700;38.270;2023-02-18T04:44:24;99651.56;;;-8.71;69.51
55347;BME280;41218;55.700;38.270;2023-02-18T04:49:25;99623.16;;;-8.72;69.68
55347;BME280;41218;55.700;38.270;2023-02-18T04:54:25;99634.09;;;-8.56;69.81
55347;BME280;41218;55.700;38.270;2023-02-18T04:59:25;99631.50;;;-8.51;69.88
55347;BME280;41218;55.700;38.270;2023-02-18T05:04:26;99620.38;;;-8.38;70.47
55347;BME280;41218;55.700;38.270;2023-02-18T05:09:26;99608.16;;;-8.29;69.47
55347;BME280;41218;55.700;38.270;2023-02-18T05:14:27;99614.13;;;-8.21;69.81
55347;BME280;41218;55.700;38.270;2023-02-18T05:19:27;99592.69;;;-8.21;70.51
55347;BME280;41218;55.700;38.270;2023-02-18T05:24:28;99605.72;;;-8.08;70.71
55347;BME280;41218;55.700;38.270;2023-02-18T05:29:28;99590.75;;;-8.04;70.58
55347;BME280;41218;55.700;38.270;2023-02-18T05:34:28;99583.63;;;-7.93;70.51
55347;BME280;41218;55.700;38.270;2023-02-18T05:39:29;99573.50;;;-7.86;69.76
55347;BME280;41218;55.700;38.270;2023-02-18T05:44:29;99562.31;;;-7.78;70.93
55347;BME280;41218;55.700;38.270;2023-02-18T05:49:31;99559.13;;;-7.75;70.41
55347;BME280;41218;55.700;38.270;2023-02-18T05:54:32;99550.59;;;-7.67;70.57
55347;BME280;41218;55.700;38.270;2023-02-18T05:59:32;99553.66;;;-7.58;70.86
55347;BME280;41218;55.700;38.270;2023-02-18T06:04:33;99545.88;;;-7.54;71.08
55347;BME280;41218;55.700;38.270;2023-02-18T06:09:33;99531.72;;;-7.45;71.00
55347;BME280;41218;55.700;38.270;2023-02-18T06:14:34;99526.41;;;-7.39;70.13
55347;BME280;41218;55.700;38.270;2023-02-18T06:19:34;99521.91;;;-7.34;70.76
55347;BME280;41218;55.700;38.270;2023-02-18T06:24:35;99519.28;;;-7.23;70.60
55347;BME280;41218;55.700;38.270;2023-02-18T06:29:36;99498.06;;;-7.20;70.19
55347;BME280;41218;55.700;38.270;2023-02-18T06:34:36;99494.09;;;-7.12;70.32
55347;BME280;41218;55.700;38.270;2023-02-18T06:39:38;99495.47;;;-7.05;69.96
55347;BME280;41218;55.700;38.270;2023-02-18T06:44:39;99487.19;;;-6.98;70.46
55347;BME280;41218;55.700;38.270;2023-02-18T06:49:40;99490.22;;;-6.89;70.45
55347;BME280;41218;55.700;38.270;2023-02-18T06:54:40;99477.31;;;-6.82;70.54
55347;BME280;41218;55.700;38.270;2023-02-18T06:59:41;99477.06;;;-6.75;70.80
55347;BME280;41218;55.700;38.270;2023-02-18T07:04:41;99453.19;;;-6.77;70.20
55347;BME280;41218;55.700;38.270;2023-02-18T07:09:42;99467.44;;;-6.66;70.92
55347;BME280;41218;55.700;38.270;2023-02-18T07:14:42;99450.78;;;-6.63;70.07
55347;BME280;41218;55.700;38.270;2023-02-18T07:19:43;99442.50;;;-6.56;70.42
55347;BME280;41218;55.700;38.270;2023-02-18T07:24:43;99435.78;;;-6.54;70.40
55347;BME280;41218;55.700;38.270;2023-02-18T07:29:44;99425.28;;;-6.45;70.26
55347;BME280;41218;55.700;38.270;2023-02-18T07:34:45;99425.88;;;-6.38;69.83
55347;BME280;41218;55.700;38.270;2023-02-18T07:39:45;99410.28;;;-6.26;70.18
55347;BME280;41218;55.700;38.270;2023-02-18T07:44:46;99393.31;;;-6.21;69.43
55347;BME280;41218;55.700;38.270;2023-02-18T07:49:46;99393.06;;;-6.09;70.51
55347;BME280;41218;55.700;38.270;2023-02-18T07:54:47;99381.78;;;-6.06;70.34
55347;BME280;41218;55.700;38.270;2023-02-18T07:59:47;99365.38;;;-5.99;70.00
55347;BME280;41218;55.700;38.270;2023-02-18T08:04:48;99355.63;;;-5.90;70.18
55347;BME280;41218;55.700;38.270;2023-02-18T08:09:49;99348.59;;;-5.71;69.89
55347;BME280;41218;55.700;38.270;2023-02-18T08:14:49;99342.41;;;-5.66;70.11
55347;BME280;41218;55.700;38.270;2023-02-18T08:19:50;99344.56;;;-5.63;69.41
55347;BME280;41218;55.700;38.270;2023-02-18T08:24:53;99337.81;;;-5.55;69.51
55347;BME280;41218;55.700;38.270;2023-02-18T08:29:54;99322.47;;;-5.55;69.42
55347;BME280;41218;55.700;38.270;2023-02-18T08:34:55;99313.28;;;-5.54;69.13
55347;BME280;41218;55.700;38.270;2023-02-18T08:39:55;99307.03;;;-5.34;69.49
55347;BME280;41218;55.700;38.270;2023-02-18T08:44:56;99294.59;;;-5.25;69.48
55347;BME280;41218;55.700;38.270;2023-02-18T08:49:56;99289.69;;;-5.12;68.82
55347;BME280;41218;55.700;38.270;2023-02-18T08:54:57;99278.13;;;-5.13;68.72
55347;BME280;41218;55.700;38.270;2023-02-18T08:59:58;99267.03;;;-5.06;68.73
55347;BME280;41218;55.700;38.270;2023-02-18T09:04:58;99255.91;;;-4.99;68.84
55347;BME280;41218;55.700;38.270;2023-02-18T09:09:58;99252.38;;;-4.90;68.24
55347;BME280;41218;55.700;38.270;2023-02-18T09:14:59;99249.31;;;-4.78;68.17
55347;BME280;41218;55.700;38.270;2023-02-18T09:20:00;99232.28;;;-4.73;68.10
55347;BME280;41218;55.700;38.270;2023-02-18T09:25:02;99223.78;;;-4.56;67.81
55347;BME280;41218;55.700;38.270;2023-02-18T09:30:04;99202.97;;;-4.51;68.16
55347;BME280;41218;55.700;38.270;2023-02-18T09:35:04;99203.69;;;-4.40;67.53
55347;BME280;41218;55.700;38.270;2023-02-18T09:40:05;99200.41;;;-4.32;67.19
55347;BME280;41218;55.700;38.270;2023-02-18T09:45:06;99186.78;;;-4.21;67.31
55347;BME280;41218;55.700;38.270;2023-02-18T09:55:23;99179.63;;;-4.07;67.10
55347;BME280;41218;55.700;38.270;2023-02-18T10:00:36;99163.34;;;-4.02;66.52
55347;BME280;41218;55.700;38.270;2023-02-18T10:05:40;99157.41;;;-3.99;66.54
55347;BME280;41218;55.700;38.270;2023-02-18T10:10:44;99154.09;;;-3.96;66.44
55347;BME280;41218;55.700;38.270;2023-02-18T10:15:47;99153.31;;;-3.96;66.29
55347;BME280;41218;55.700;38.270;2023-02-18T10:20:48;99135.94;;;-3.90;66.15
55347;BME280;41218;55.700;38.270;2023-02-18T10:25:50;99121.28;;;-3.84;66.54
55347;BME280;41218;55.700;38.270;2023-02-18T10:31:04;99111.97;;;-3.73;65.60
55347;BME280;41218;55.700;38.270;2023-02-18T10:36:14;99099.13;;;-3.62;66.30
55347;BME280;41218;55.700;38.270;2023-02-18T10:41:27;99095.31;;;-3.61;66.01
55347;BME280;41218;55.700;38.270;2023-02-18T10:52:18;99066.06;;;-3.54;65.51
55347;BME280;41218;55.700;38.270;2023-02-18T10:57:21;99062.03;;;-3.56;65.36
55347;BME280;41218;55.700;38.270;2023-02-18T11:02:25;99055.53;;;-3.55;64.88
55347;BME280;41218;55.700;38.270;2023-02-18T11:07:30;99049.34;;;-3.56;64.84
55347;BME280;41218;55.700;38.270;2023-02-18T11:12:47;99050.63;;;-3.53;65.37
55347;BME280;41218;55.700;38.270;2023-02-18T11:17:50;99043.84;;;-3.51;64.58
55347;BME280;41218;55.700;38.270;2023-02-18T11:28:28;99022.94;;;-3.45;64.39
55347;BME280;41218;55.700;38.270;2023-02-18T11:33:42;99015.75;;;-3.50;64.37
55347;BME280;41218;55.700;38.270;2023-02-18T11:38:54;98992.50;;;-3.51;65.04
55347;BME280;41218;55.700;38.270;2023-02-18T11:43:55;98987.03;;;-3.46;64.60
55347;BME280;41218;55.700;38.270;2023-02-18T11:49:19;98983.44;;;-3.41;64.12
55347;BME280;41218;55.700;38.270;2023-02-18T11:59:25;98965.34;;;-3.27;64.49
55347;BME280;41218;55.700;38.270;2023-02-18T12:04:32;98964.78;;;-3.10;64.47
55347;BME280;41218;55.700;38.270;2023-02-18T12:09:37;98959.78;;;-3.03;64.21
55347;BME280;41218;55.700;38.270;2023-02-18T12:14:39;98949.66;;;-3.11;64.06
55347;BME280;41218;55.700;38.270;2023-02-18T12:25:07;98942.34;;;-3.10;63.54
55347;BME280;41218;55.700;38.270;2023-02-18T12:51:40;98920.72;;;-3.10;63.72
55347;BME280;41218;55.700;38.270;2023-02-18T12:57:13;98918.91;;;-3.15;63.82
55347;BME280;41218;55.700;38.270;2023-02-18T13:02:27;98915.22;;;-3.19;63.77
55347;BME280;41218;55.700;38.270;2023-02-18T13:13:14;98898.97;;;-3.33;63.97
55347;BME280;41218;55.700;38.270;2023-02-18T13:18:27;98894.59;;;-3.43;63.73
55347;BME280;41218;55.700;38.270;2023-02-18T13:23:32;98883.34;;;-3.50;63.65
55347;BME280;41218;55.700;38.270;2023-02-18T13:28:42;98884.63;;;-3.61;64.49
55347;BME280;41218;55.700;38.270;2023-02-18T13:39:08;98883.59;;;-3.79;63.84
55347;BME280;41218;55.700;38.270;2023-02-18T13:45:21;98865.91;;;-3.85;64.35
55347;BME280;41218;55.700;38.270;2023-02-18T13:55:19;98864.94;;;-3.94;64.24
55347;BME280;41218;55.700;38.270;2023-02-18T14:00:24;98857.53;;;-4.03;64.17
55347;BME280;41218;55.700;38.270;2023-02-18T14:05:38;98854.31;;;-4.05;64.31
55347;BME280;41218;55.700;38.270;2023-02-18T14:10:39;98842.81;;;-4.10;64.82
55347;BME280;41218;55.700;38.270;2023-02-18T14:15:49;98839.69;;;-4.17;63.99
55347;BME280;41218;55.700;38.270;2023-02-18T14:20:50;98834.97;;;-4.26;64.25
55347;BME280;41218;55.700;38.270;2023-02-18T14:46:46;98815.44;;;-4.36;64.66
55347;BME280;41218;55.700;38.270;2023-02-18T14:51:51;98813.34;;;-4.39;65.03
55347;BME280;41218;55.700;38.270;2023-02-18T14:57:14;98802.31;;;-4.43;64.62
55347;BME280;41218;55.700;38.270;2023-02-18T15:02:20;98796.72;;;-4.47;64.97
55347;BME280;41218;55.700;38.270;2023-02-18T15:07:21;98800.28;;;-4.51;65.21
55347;BME280;41218;55.700;38.270;2023-02-18T15:12:23;98788.72;;;-4.52;64.93
55347;BME280;41218;55.700;38.270;2023-02-18T15:17:26;98779.59;;;-4.56;64.81
55347;BME280;41218;55.700;38.270;2023-02-18T15:22:30;98778.13;;;-4.48;65.27
55347;BME280;41218;55.700;38.270;2023-02-18T15:27:38;98766.53;;;-4.49;65.52
55347;BME280;41218;55.700;38.270;2023-02-18T15:32:39;98753.44;;;-4.55;64.81
55347;BME280;41218;55.700;38.270;2023-02-18T15:37:43;98748.75;;;-4.50;65.04
55347;BME280;41218;55.700;38.270;2023-02-18T15:42:48;98733.16;;;-4.53;64.87
55347;BME280;41218;55.700;38.270;2023-02-18T15:47:52;98728.38;;;-4.56;64.85
55347;BME280;41218;55.700;38.270;2023-02-18T15:52:55;98713.88;;;-4.60;65.23
55347;BME280;41218;55.700;38.270;2023-02-18T15:57:59;98715.25;;;-4.63;65.14
55347;BME280;41218;55.700;38.270;2023-02-18T16:03:14;98713.44;;;-4.67;65.53
55347;BME280;41218;55.700;38.270;2023-02-18T16:08:27;98701.34;;;-4.70;65.78
55347;BME280;41218;55.700;38.270;2023-02-18T16:13:27;98696.03;;;-4.75;65.56
55347;BME280;41218;55.700;38.270;2023-02-18T16:18:36;98690.81;;;-4.85;65.67
55347;BME280;41218;55.700;38.270;2023-02-18T16:23:43;98701.38;;;-4.89;65.50
55347;BME280;41218;55.700;38.270;2023-02-18T16:28:44;98685.56;;;-4.95;64.84
55347;BME280;41218;55.700;38.270;2023-02-18T16:33:45;98681.28;;;-4.96;64.99
55347;BME280;41218;55.700;38.270;2023-02-18T16:38:45;98675.97;;;-5.01;65.46
55347;BME280;41218;55.700;38.270;2023-02-18T16:43:46;98670.88;;;-5.03;65.51
55347;BME280;41218;55.700;38.270;2023-02-18T16:48:51;98667.16;;;-5.07;65.42
55347;BME280;41218;55.700;38.270;2023-02-18T16:53:55;98662.94;;;-5.13;65.59
55347;BME280;41218;55.700;38.270;2023-02-18T16:58:55;98664.84;;;-5.14;65.39
55347;BME280;41218;55.700;38.270;2023-02-18T17:04:01;98664.13;;;-5.19;65.48
55347;BME280;41218;55.700;38.270;2023-02-18T17:09:19;98655.84;;;-5.23;65.58
55347;BME280;41218;55.700;38.270;2023-02-18T17:14:22;98651.03;;;-5.26;65.90
55347;BME280;41218;55.700;38.270;2023-02-18T17:19:22;98643.22;;;-5.28;65.59
55347;BME280;41218;55.700;38.270;2023-02-18T17:24:23;98640.31;;;-5.31;65.33
55347;BME280;41218;55.700;38.270;2023-02-18T17:29:23;98633.13;;;-5.36;65.37
55347;BME280;41218;55.700;38.270;2023-02-18T17:34:27;98632.31;;;-5.36;65.12
55347;BME280;41218;55.700;38.270;2023-02-18T17:39:28;98625.91;;;-5.40;66.19
55347;BME280;41218;55.700;38.270;2023-02-18T17:44:30;98620.31;;;-5.44;65.43
55347;BME280;41218;55.700;38.270;2023-02-18T17:49:31;98619.81;;;-5.46;65.69
55347;BME280;41218;55.700;38.270;2023-02-18T17:54:31;98618.22;;;-5.47;65.62
55347;BME280;41218;55.700;38.270;2023-02-18T17:59:32;98608.81;;;-5.50;65.96
55347;BME280;41218;55.700;38.270;2023-02-18T18:04:33;98604.31;;;-5.54;65.09
55347;BME280;41218;55.700;38.270;2023-02-18T18:09:34;98608.00;;;-5.50;66.35
55347;BME280;41218;55.700;38.270;2023-02-18T18:14:35;98596.44;;;-5.51;65.71
55347;BME280;41218;55.700;38.270;2023-02-18T18:19:35;98602.13;;;-5.52;65.76
55347;BME280;41218;55.700;38.270;2023-02-18T18:24:37;98579.06;;;-5.58;66.25
55347;BME280;41218;55.700;38.270;2023-02-18T18:29:38;98585.97;;;-5.52;66.06
55347;BME280;41218;55.700;38.270;2023-02-18T18:34:39;98586.25;;;-5.54;65.81
55347;BME280;41218;55.700;38.270;2023-02-18T18:39:40;98584.66;;;-5.55;66.07
55347;BME280;41218;55.700;38.270;2023-02-18T18:44:40;98563.41;;;-5.56;65.79
55347;BME280;41218;55.700;38.270;2023-02-18T18:49:41;98576.31;;;-5.53;65.90
55347;BME280;41218;55.700;38.270;2023-02-18T18:54:42;98566.91;;;-5.56;65.61
55347;BME280;41218;55.700;38.270;2023-02-18T18:59:43;98568.00;;;-5.57;65.92
55347;BME280;41218;55.700;38.270;2023-02-18T19:04:43;98556.22;;;-5.61;65.91
55347;BME280;41218;55.700;38.270;2023-02-18T19:09:44;98556.94;;;-5.55;66.06
55347;BME280;41218;55.700;38.270;2023-02-18T19:14:44;98556.72;;;-5.59;65.63
55347;BME280;41218;55.700;38.270;2023-02-18T19:19:45;98542.75;;;-5.61;66.55
55347;BME280;41218;55.700;38.270;2023-02-18T19:24:45;98549.31;;;-5.67;66.10
55347;BME280;41218;55.700;38.270;2023-02-18T19:29:46;98542.31;;;-5.68;66.58
55347;BME280;41218;55.700;38.270;2023-02-18T19:34:49;98543.41;;;-5.69;66.30
55347;BME280;41218;55.700;38.270;2023-02-18T19:39:50;98542.09;;;-5.72;66.22
55347;BME280;41218;55.700;38.270;2023-02-18T19:44:50;98527.63;;;-5.76;66.47
55347;BME280;41218;55.700;38.270;2023-02-18T19:49:57;98532.16;;;-5.71;66.04
55347;BME280;41218;55.700;38.270;2023-02-18T19:54:58;98523.34;;;-5.77;66.36
55347;BME280;41218;55.700;38.270;2023-02-18T19:59:58;98526.03;;;-5.77;66.42
55347;BME280;41218;55.700;38.270;2023-02-18T20:04:59;98522.56;;;-5.77;66.56
55347;BME280;41218;55.700;38.270;2023-02-18T20:10:02;98513.25;;;-5.85;66.29
55347;BME280;41218;55.700;38.270;2023-02-18T20:15:03;98514.03;;;-5.85;66.91
55347;BME280;41218;55.700;38.270;2023-02-18T20:20:04;98513.97;;;-5.79;66.53
55347;BME280;41218;55.700;38.270;2023-02-18T20:25:05;98501.38;;;-5.84;66.80
55347;BME280;41218;55.700;38.270;2023-02-18T20:30:07;98506.25;;;-5.86;66.56
55347;BME280;41218;55.700;38.270;2023-02-18T20:35:07;98498.78;;;-5.89;66.88
55347;BME280;41218;55.700;38.270;2023-02-18T20:40:08;98495.28;;;-5.90;66.78
55347;BME280;41218;55.700;38.270;2023-02-18T20:45:09;98490.19;;;-5.91;66.75
55347;BME280;41218;55.700;38.270;2023-02-18T20:50:09;98491.78;;;-5.90;66.63
55347;BME280;41218;55.700;38.270;2023-02-18T20:55:10;98484.63;;;-5.95;66.46
55347;BME280;41218;55.700;38.270;2023-02-18T21:00:11;98477.31;;;-5.94;67.02
55347;BME280;41218;55.700;38.270;2023-02-18T21:05:12;98471.25;;;-6.00;66.75
55347;BME280;41218;55.700;38.270;2023-02-18T21:10:12;98464.03;;;-6.05;66.57
55347;BME280;41218;55.700;38.270;2023-02-18T21:15:13;98465.16;;;-6.06;66.19
55347;BME280;41218;55.700;38.270;2023-02-18T21:20:13;98469.75;;;-6.06;66.38
55347;BME280;41218;55.700;38.270;2023-02-18T21:25:14;98453.44;;;-6.15;66.95
55347;BME280;41218;55.700;38.270;2023-02-18T21:30:15;98451.47;;;-6.09;66.63
55347;BME280;41218;55.700;38.270;2023-02-18T21:35:15;98452.88;;;-6.12;66.81
55347;BME280;41218;55.700;38.270;2023-02-18T21:40:17;98441.50;;;-6.09;66.75
55347;BME280;41218;55.700;38.270;2023-02-18T21:45:18;98440.22;;;-6.11;67.09
55347;BME280;41218;55.700;38.270;2023-02-18T21:50:19;98445.88;;;-6.13;67.04
55347;BME280;41218;55.700;38.270;2023-02-18T21:55:19;98446.97;;;-6.14;66.67
55347;BME280;41218;55.700;38.270;2023-02-18T22:00:20;98430.09;;;-6.19;67.17
55347;BME280;41218;55.700;38.270;2023-02-18T22:05:21;98438.09;;;-6.14;66.97
55347;BME280;41218;55.700;38.270;2023-02-18T22:10:24;98434.09;;;-6.17;66.75
55347;BME280;41218;55.700;38.270;2023-02-18T22:15:25;98430.41;;;-6.21;67.21
55347;BME280;41218;55.700;38.270;2023-02-18T22:20:25;98429.09;;;-6.23;67.09
55347;BME280;41218;55.700;38.270;2023-02-18T22:25:26;98425.09;;;-6.26;67.09
55347;BME280;41218;55.700;38.270;2023-02-18T22:30:26;98417.91;;;-6.31;66.89
55347;BME280;41218;55.700;38.270;2023-02-18T22:35:27;98411.88;;;-6.41;66.80
55347;BME280;41218;55.700;38.270;2023-02-18T22:40:27;98413.78;;;-6.42;67.01
55347;BME280;41218;55.700;38.270;2023-02-18T22:45:28;98408.41;;;-6.42;66.96
55347;BME280;41218;55.700;38.270;2023-02-18T22:50:28;98412.66;;;-6.41;67.36
55347;BME280;41218;55.700;38.270;2023-02-18T22:55:30;98408.69;;;-6.43;67.11
55347;BME280;41218;55.700;38.270;2023-02-18T23:00:31;98419.16;;;-6.42;67.09
55347;BME280;41218;55.700;38.270;2023-02-18T23:05:33;98414.66;;;-6.47;67.34
55347;BME280;41218;55.700;38.270;2023-02-18T23:10:33;98405.34;;;-6.54;67.02
55347;BME280;41218;55.700;38.270;2023-02-18T23:15:33;98405.56;;;-6.51;67.39
55347;BME280;41218;55.700;38.270;2023-02-18T23:20:34;98389.50;;;-6.56;66.89
55347;BME280;41218;55.700;38.270;2023-02-18T23:25:59;98388.09;;;-6.53;66.90
55347;BME280;41218;55.700;38.270;2023-02-18T23:31:00;98379.31;;;-6.59;67.07
55347;BME280;41218;55.700;38.270;2023-02-18T23:36:08;98378.53;;;-6.59;67.14
55347;BME280;41218;55.700;38.270;2023-02-18T23:41:08;98371.84;;;-6.62;66.80
55347;BME280;41218;55.700;38.270;2023-02-18T23:46:09;98370.31;;;-6.68;66.68
55347;BME280;41218;55.700;38.270;2023-02-18T23:51:13;98369.03;;;-6.71;67.15
